Time;durP1;ratioP1;P1;durP2;ratioP2;P2;SDS_P1;SDS_P2;PMS_P1;PMS_P2;Temp;Humidity;BMP_temperature;BMP_pressure;BME280_temperature;BME280_humidity;BME280_pressure;Samples;Min_cycle;Max_cycle;Signal;HPM_P1;HPM_P2
2023/06/05 00:00:21;;;;;;;;;;;18.90;61.80;;;;;;5027777;28;1469;-67
2023/06/05 00:02:47;;;;;;;;;;;18.90;61.80;;;;;;5031415;28;1336;-68
2023/06/05 00:05:13;;;;;;;;;;;18.90;61.70;;;;;;5030620;28;832;-67
2023/06/05 00:07:38;;;;;;;;;;;18.90;61.80;;;;;;5029820;28;988;-67
2023/06/05 00:10:07;;;;;;;;;;;18.90;61.80;;;;;;5025801;28;820;-67
2023/06/05 00:12:32;;;;;;;;;;;18.90;62.60;;;;;;5024139;28;2355;-67
2023/06/05 00:14:58;;;;;;;;;;;18.90;61.80;;;;;;5030227;28;867;-68
2023/06/05 00:17:24;;;;;;;;;;;18.90;61.80;;;;;;5024292;28;876;-68
2023/06/05 00:19:50;;;;;;;;;;;18.90;61.80;;;;;;5027591;28;1163;-68
2023/06/05 00:22:15;;;;;;;;;;;18.90;61.80;;;;;;5028151;28;900;-67
2023/06/05 00:24:40;;;;;;;;;;;18.90;61.90;;;;;;5029927;28;1268;-67
2023/06/05 00:27:06;;;;;;;;;;;18.90;61.90;;;;;;5029825;28;789;-67
2023/06/05 00:29:32;;;;;;;;;;;18.90;61.90;;;;;;5028922;28;848;-67
2023/06/05 00:31:57;;;;;;;;;;;18.90;61.90;;;;;;5029637;28;1890;-67
2023/06/05 00:34:22;;;;;;;;;;;18.90;61.90;;;;;;5030059;28;1467;-67
2023/06/05 00:36:51;;;;;;;;;;;18.90;61.90;;;;;;5028516;28;860;-67
2023/06/05 00:39:18;;;;;;;;;;;18.90;61.90;;;;;;5028309;28;1290;-67
2023/06/05 00:41:45;;;;;;;;;;;18.90;62.00;;;;;;5029633;28;828;-67
2023/06/05 00:44:10;;;;;;;;;;;18.90;62.00;;;;;;5029309;28;1260;-67
2023/06/05 00:46:36;;;;;;;;;;;18.90;62.00;;;;;;5025846;28;833;-68
2023/06/05 00:49:01;;;;;;;;;;;18.90;62.00;;;;;;5019295;28;831;-67
2023/06/05 00:51:27;;;;;;;;;;;18.90;62.00;;;;;;5029877;28;1902;-67
2023/06/05 00:53:52;;;;;;;;;;;18.90;62.00;;;;;;5027841;28;1339;-67
2023/06/05 00:56:20;;;;;;;;;;;18.90;62.00;;;;;;5027479;28;867;-68
2023/06/05 00:58:46;;;;;;;;;;;18.90;62.00;;;;;;5029129;28;998;-67
2023/06/05 01:01:12;;;;;;;;;;;18.90;62.00;;;;;;5028497;28;879;-67
2023/06/05 01:03:39;;;;;;;;;;;18.90;62.10;;;;;;5027109;28;1333;-67
2023/06/05 01:06:05;;;;;;;;;;;18.90;62.10;;;;;;5027927;28;1091;-67
2023/06/05 01:08:38;;;;;;;;;;;18.90;62.10;;;;;;5028808;28;888;-67
2023/06/05 01:11:05;;;;;;;;;;;18.90;62.10;;;;;;5027618;28;1969;-68
2023/06/05 01:13:31;;;;;;;;;;;18.90;62.10;;;;;;5028286;28;1295;-67
2023/06/05 01:15:57;;;;;;;;;;;18.90;62.20;;;;;;5029516;28;880;-67
2023/06/05 01:18:23;;;;;;;;;;;18.90;62.10;;;;;;5026214;28;896;-67
2023/06/05 01:20:48;;;;;;;;;;;18.90;62.10;;;;;;5029524;28;882;-67
2023/06/05 01:23:14;;;;;;;;;;;18.90;62.10;;;;;;5028103;28;1357;-67
2023/06/05 01:25:42;;;;;;;;;;;18.90;62.20;;;;;;5027099;28;1154;-67
2023/06/05 01:28:18;;;;;;;;;;;18.90;62.20;;;;;;5027669;28;816;-67
2023/06/05 01:30:44;;;;;;;;;;;18.90;62.20;;;;;;5028566;28;1635;-67
2023/06/05 01:33:12;;;;;;;;;;;18.90;62.20;;;;;;5027107;28;1910;-68
2023/06/05 01:35:39;;;;;;;;;;;18.90;62.20;;;;;;5028480;28;903;-67
2023/06/05 01:38:09;;;;;;;;;;;18.90;62.20;;;;;;5028632;28;851;-67
2023/06/05 01:40:35;;;;;;;;;;;18.90;62.20;;;;;;5027115;28;1466;-68
2023/06/05 01:43:00;;;;;;;;;;;18.90;62.20;;;;;;5026030;28;1292;-67
2023/06/05 01:45:26;;;;;;;;;;;18.90;62.20;;;;;;5029119;28;794;-67
2023/06/05 01:47:51;;;;;;;;;;;18.90;62.20;;;;;;5026749;28;963;-68
2023/06/05 01:50:18;;;;;;;;;;;18.90;62.20;;;;;;5029228;28;917;-67
2023/06/05 01:52:44;;;;;;;;;;;18.90;62.30;;;;;;5030058;28;1979;-67
2023/06/05 01:55:16;;;;;;;;;;;18.90;62.30;;;;;;5028117;28;1484;-67
2023/06/05 01:57:42;;;;;;;;;;;18.90;62.30;;;;;;5024161;28;830;-68
2023/06/05 02:00:13;;;;;;;;;;;18.90;62.30;;;;;;5016795;28;908;-67
2023/06/05 02:02:45;;;;;;;;;;;18.90;62.30;;;;;;5027603;28;1293;-67
2023/06/05 02:05:12;;;;;;;;;;;18.90;62.30;;;;;;5027730;28;841;-67
2023/06/05 02:07:39;;;;;;;;;;;18.90;62.30;;;;;;5027209;28;915;-67
2023/06/05 02:10:05;;;;;;;;;;;18.90;62.30;;;;;;5028816;28;805;-67
2023/06/05 02:12:32;;;;;;;;;;;18.90;62.30;;;;;;5028513;28;1914;-67
2023/06/05 02:14:59;;;;;;;;;;;18.90;62.40;;;;;;5027813;28;833;-68
2023/06/05 02:17:24;;;;;;;;;;;18.90;62.40;;;;;;5028238;28;812;-67
2023/06/05 02:19:50;;;;;;;;;;;18.90;62.40;;;;;;5028901;28;1166;-67
2023/06/05 02:22:15;;;;;;;;;;;18.90;62.40;;;;;;5028835;28;916;-67
2023/06/05 02:24:42;;;;;;;;;;;18.90;62.40;;;;;;5028393;28;1436;-67
2023/06/05 02:27:08;;;;;;;;;;;18.90;62.40;;;;;;5027009;28;932;-67
2023/06/05 02:29:33;;;;;;;;;;;18.90;62.40;;;;;;5026085;28;785;-67
2023/06/05 02:31:59;;;;;;;;;;;18.90;62.40;;;;;;5027600;28;1898;-67
2023/06/05 02:34:24;;;;;;;;;;;18.90;62.40;;;;;;5025724;28;1518;-67
2023/06/05 02:36:50;;;;;;;;;;;18.90;62.50;;;;;;5026938;28;878;-67
2023/06/05 02:39:16;;;;;;;;;;;18.90;62.50;;;;;;5028664;28;1329;-67
2023/06/05 02:41:44;;;;;;;;;;;18.90;62.50;;;;;;5028451;28;863;-67
2023/06/05 02:44:09;;;;;;;;;;;18.90;62.50;;;;;;5029454;28;1258;-67
2023/06/05 02:46:35;;;;;;;;;;;18.90;62.50;;;;;;5030256;28;891;-67
2023/06/05 02:49:00;;;;;;;;;;;18.90;62.50;;;;;;5021677;28;851;-67
2023/06/05 02:51:25;;;;;;;;;;;18.90;62.50;;;;;;5031525;28;1911;-67
2023/06/05 02:53:51;;;;;;;;;;;18.90;62.50;;;;;;5030811;28;1359;-67
2023/06/05 02:56:16;;;;;;;;;;;18.90;62.50;;;;;;5031085;28;833;-67
2023/06/05 02:58:43;;;;;;;;;;;18.90;62.50;;;;;;5032527;28;899;-67
2023/06/05 03:01:10;;;;;;;;;;;18.90;62.50;;;;;;5032158;28;855;-67
2023/06/05 03:03:35;;;;;;;;;;;18.90;62.50;;;;;;5031173;28;1248;-67
2023/06/05 03:06:04;;;;;;;;;;;18.90;62.60;;;;;;5030969;28;837;-67
2023/06/05 03:08:30;;;;;;;;;;;18.90;62.60;;;;;;5032709;28;812;-67
2023/06/05 03:10:56;;;;;;;;;;;18.90;62.60;;;;;;5029221;28;864;-67
2023/06/05 03:13:21;;;;;;;;;;;18.90;62.60;;;;;;5028975;28;1906;-67
2023/06/05 03:15:47;;;;;;;;;;;18.90;62.60;;;;;;5032186;28;865;-67
2023/06/05 03:18:12;;;;;;;;;;;18.90;62.60;;;;;;5030711;28;808;-66
2023/06/05 03:20:38;;;;;;;;;;;18.90;62.60;;;;;;5032418;28;964;-69
2023/06/05 03:23:03;;;;;;;;;;;18.90;62.60;;;;;;5030665;28;1341;-67
2023/06/05 03:25:29;;;;;;;;;;;18.90;62.60;;;;;;5030273;28;852;-67
2023/06/05 03:27:55;;;;;;;;;;;18.90;62.60;;;;;;5031854;28;863;-68
2023/06/05 03:30:20;;;;;;;;;;;18.90;62.60;;;;;;5031289;28;840;-67
2023/06/05 03:32:46;;;;;;;;;;;18.90;62.60;;;;;;5031449;28;1907;-67
2023/06/05 03:35:12;;;;;;;;;;;18.90;62.60;;;;;;5027247;28;1504;-67
2023/06/05 03:37:37;;;;;;;;;;;18.90;62.60;;;;;;5025359;28;784;-67
2023/06/05 03:40:04;;;;;;;;;;;18.90;62.70;;;;;;5022256;28;1259;-67
2023/06/05 03:42:30;;;;;;;;;;;18.90;62.60;;;;;;5032190;28;1389;-67
2023/06/05 03:44:55;;;;;;;;;;;18.90;62.70;;;;;;5029739;28;1050;-67
2023/06/05 03:47:21;;;;;;;;;;;18.90;62.70;;;;;;5030113;28;1577;-68
2023/06/05 03:49:47;;;;;;;;;;;18.90;62.70;;;;;;5019037;28;881;-67
2023/06/05 03:52:15;;;;;;;;;;;18.90;62.70;;;;;;5029032;28;1968;-67
2023/06/05 03:54:44;;;;;;;;;;;18.90;62.70;;;;;;5012785;28;1280;-66
2023/06/05 03:57:12;;;;;;;;;;;18.90;62.70;;;;;;5030303;28;795;-68
2023/06/05 03:59:38;;;;;;;;;;;18.90;62.70;;;;;;5027908;28;860;-68
2023/06/05 04:02:04;;;;;;;;;;;18.90;62.70;;;;;;5028917;28;1039;-67
2023/06/05 04:04:30;;;;;;;;;;;18.90;62.70;;;;;;5029680;28;1589;-68
2023/06/05 04:06:55;;;;;;;;;;;18.90;62.80;;;;;;5027544;28;1339;-67
2023/06/05 04:09:21;;;;;;;;;;;18.90;62.80;;;;;;5029388;28;931;-67
2023/06/05 04:11:47;;;;;;;;;;;18.90;62.80;;;;;;5030530;28;1957;-68
2023/06/05 04:14:12;;;;;;;;;;;18.90;62.80;;;;;;5028537;28;1281;-67
2023/06/05 04:16:38;;;;;;;;;;;18.90;62.80;;;;;;5029008;28;1010;-67
2023/06/05 04:19:06;;;;;;;;;;;18.90;62.80;;;;;;5026398;28;779;-67
2023/06/05 04:21:33;;;;;;;;;;;18.90;62.80;;;;;;5026665;28;848;-67
2023/06/05 04:23:58;;;;;;;;;;;18.90;62.80;;;;;;5027568;28;1280;-68
2023/06/05 04:26:26;;;;;;;;;;;18.90;62.80;;;;;;5028215;28;942;-68
2023/06/05 04:28:51;;;;;;;;;;;18.90;62.80;;;;;;5026199;28;841;-67
2023/06/05 04:31:17;;;;;;;;;;;18.90;62.90;;;;;;5030037;28;1952;-68
2023/06/05 04:33:43;;;;;;;;;;;18.90;62.90;;;;;;5029113;28;1400;-67
2023/06/05 04:36:08;;;;;;;;;;;18.90;62.90;;;;;;5029609;28;941;-67
2023/06/05 04:38:34;;;;;;;;;;;18.90;62.90;;;;;;5030633;28;962;-67
2023/06/05 04:40:59;;;;;;;;;;;18.90;62.80;;;;;;5030237;28;956;-68
2023/06/05 04:43:25;;;;;;;;;;;18.80;62.80;;;;;;5027171;28;1973;-69
2023/06/05 04:45:51;;;;;;;;;;;18.90;62.90;;;;;;5028223;28;2174;-68
2023/06/05 04:48:16;;;;;;;;;;;18.90;62.90;;;;;;5027539;28;1376;-68
2023/06/05 04:50:42;;;;;;;;;;;18.90;62.90;;;;;;5027963;28;1554;-70
2023/06/05 04:53:07;;;;;;;;;;;18.90;62.90;;;;;;5027518;28;1902;-70
2023/06/05 04:55:33;;;;;;;;;;;18.90;63.70;;;;;;5028547;28;1417;-69
2023/06/05 04:58:00;;;;;;;;;;;18.90;62.90;;;;;;5030547;28;773;-70
2023/06/05 05:00:29;;;;;;;;;;;18.90;62.90;;;;;;5029273;28;844;-66
2023/06/05 05:02:54;;;;;;;;;;;18.90;63.00;;;;;;5027750;28;1330;-68
2023/06/05 05:05:20;;;;;;;;;;;18.90;63.00;;;;;;5026490;28;1292;-67
2023/06/05 05:07:45;;;;;;;;;;;18.90;62.90;;;;;;5028930;28;844;-67
2023/06/05 05:10:11;;;;;;;;;;;18.80;62.90;;;;;;5027929;28;1248;-69
2023/06/05 05:12:36;;;;;;;;;;;18.90;62.90;;;;;;5027213;28;1882;-70
2023/06/05 05:15:02;;;;;;;;;;;18.90;63.00;;;;;;5029800;28;1183;-70
2023/06/05 05:17:28;;;;;;;;;;;18.80;62.90;;;;;;5029378;28;1953;-69
2023/06/05 05:19:54;;;;;;;;;;;18.90;63.00;;;;;;5028033;28;1921;-69
2023/06/05 05:22:20;;;;;;;;;;;18.90;63.00;;;;;;5027202;28;1234;-70
2023/06/05 05:24:46;;;;;;;;;;;18.90;63.00;;;;;;5029099;28;1697;-67
2023/06/05 05:27:11;;;;;;;;;;;18.90;63.00;;;;;;5029322;28;946;-67
2023/06/05 05:29:36;;;;;;;;;;;18.90;63.00;;;;;;5026392;28;1066;-67
2023/06/05 05:32:02;;;;;;;;;;;18.80;63.00;;;;;;5027660;28;1906;-67
2023/06/05 05:34:28;;;;;;;;;;;18.90;63.00;;;;;;5027670;28;1389;-67
2023/06/05 05:36:53;;;;;;;;;;;18.90;63.00;;;;;;5028199;28;837;-67
2023/06/05 05:39:18;;;;;;;;;;;18.90;63.00;;;;;;5029539;28;1270;-67
2023/06/05 05:41:44;;;;;;;;;;;18.90;63.00;;;;;;5027443;28;1220;-66
2023/06/05 05:44:09;;;;;;;;;;;18.90;63.00;;;;;;5029203;28;1222;-67
2023/06/05 05:46:35;;;;;;;;;;;18.90;62.20;;;;;;5027656;28;875;-66
2023/06/05 05:49:00;;;;;;;;;;;18.90;60.30;;;;;;5027361;28;812;-67
2023/06/05 05:51:26;;;;;;;;;;;18.90;60.40;;;;;;5025754;28;1902;-66
2023/06/05 05:53:51;;;;;;;;;;;18.90;60.30;;;;;;5028043;28;1357;-66
2023/06/05 05:56:17;;;;;;;;;;;18.90;60.30;;;;;;5026514;28;904;-66
2023/06/05 05:58:43;;;;;;;;;;;18.90;60.20;;;;;;5028078;28;872;-67
2023/06/05 06:01:08;;;;;;;;;;;18.90;60.50;;;;;;5029449;28;756;-66
2023/06/05 06:03:37;;;;;;;;;;;18.90;60.50;;;;;;5027623;28;1267;-66
2023/06/05 06:06:03;;;;;;;;;;;18.90;60.30;;;;;;5027275;28;876;-66
2023/06/05 06:08:29;;;;;;;;;;;18.90;60.20;;;;;;5028555;28;818;-66
2023/06/05 06:10:55;;;;;;;;;;;18.80;60.10;;;;;;5026408;28;845;-66
2023/06/05 06:13:20;;;;;;;;;;;18.80;60.20;;;;;;5027321;28;1910;-66
2023/06/05 06:15:46;;;;;;;;;;;18.80;60.30;;;;;;5029218;28;1531;-66
2023/06/05 06:18:12;;;;;;;;;;;18.90;60.20;;;;;;5027408;28;830;-67
2023/06/05 06:20:37;;;;;;;;;;;18.90;59.90;;;;;;5031647;28;1288;-67
2023/06/05 06:23:03;;;;;;;;;;;18.90;60.00;;;;;;5032197;28;1297;-67
2023/06/05 06:25:28;;;;;;;;;;;18.90;60.00;;;;;;5032874;28;865;-67
2023/06/05 06:27:54;;;;;;;;;;;18.90;59.90;;;;;;5031054;28;860;-67
2023/06/05 06:30:21;;;;;;;;;;;18.90;59.60;;;;;;5030558;28;891;-67
2023/06/05 06:32:47;;;;;;;;;;;18.80;59.40;;;;;;5031434;28;1969;-67
2023/06/05 06:35:15;;;;;;;;;;;18.90;59.70;;;;;;5032059;28;1143;-67
2023/06/05 06:37:41;;;;;;;;;;;18.90;59.70;;;;;;5031394;28;929;-67
2023/06/05 06:40:10;;;;;;;;;;;18.80;59.70;;;;;;5030350;28;1251;-67
2023/06/05 06:42:36;;;;;;;;;;;18.80;59.70;;;;;;5028708;28;1337;-68
2023/06/05 06:45:03;;;;;;;;;;;18.90;59.70;;;;;;5031284;28;910;-67
2023/06/05 06:47:28;;;;;;;;;;;18.80;59.50;;;;;;5032444;28;1456;-68
2023/06/05 06:49:54;;;;;;;;;;;18.80;59.40;;;;;;5032006;28;887;-67
2023/06/05 06:52:20;;;;;;;;;;;18.90;59.50;;;;;;5031809;28;1972;-67
2023/06/05 06:54:46;;;;;;;;;;;18.90;59.40;;;;;;5031957;28;1307;-67
2023/06/05 06:57:11;;;;;;;;;;;18.90;59.40;;;;;;5032042;28;892;-67
2023/06/05 06:59:40;;;;;;;;;;;18.90;59.40;;;;;;5031935;28;832;-67
2023/06/05 07:02:13;;;;;;;;;;;18.90;59.30;;;;;;5031306;28;891;-67
2023/06/05 07:04:38;;;;;;;;;;;18.90;59.30;;;;;;5029633;28;1352;-67
2023/06/05 07:07:04;;;;;;;;;;;18.90;59.40;;;;;;5027571;28;876;-67
2023/06/05 07:09:29;;;;;;;;;;;18.90;59.50;;;;;;5031084;28;798;-67
2023/06/05 07:11:55;;;;;;;;;;;18.90;59.80;;;;;;5031342;28;1961;-67
2023/06/05 07:14:21;;;;;;;;;;;19.00;60.10;;;;;;5032707;28;1331;-67
2023/06/05 07:16:48;;;;;;;;;;;19.00;60.40;;;;;;5011639;28;1028;-67
2023/06/05 07:19:15;;;;;;;;;;;19.00;60.50;;;;;;5031180;28;1159;-67
2023/06/05 07:21:41;;;;;;;;;;;19.10;60.80;;;;;;5025359;28;832;-67
2023/06/05 07:24:07;;;;;;;;;;;19.10;61.10;;;;;;5022099;28;1235;-67
2023/06/05 07:26:33;;;;;;;;;;;19.10;61.30;;;;;;5029556;28;956;-67
2023/06/05 07:28:58;;;;;;;;;;;19.10;61.40;;;;;;5031167;28;816;-67
2023/06/05 07:31:24;;;;;;;;;;;19.10;61.60;;;;;;5030737;28;1949;-67
2023/06/05 07:33:49;;;;;;;;;;;19.20;62.70;;;;;;5028505;28;1299;-67
2023/06/05 07:36:15;;;;;;;;;;;19.20;62.10;;;;;;5028739;28;898;-67
2023/06/05 07:38:40;;;;;;;;;;;19.20;62.30;;;;;;5028786;28;817;-67
2023/06/05 07:41:08;;;;;;;;;;;19.30;62.40;;;;;;5030535;28;1226;-67
2023/06/05 07:43:33;;;;;;;;;;;19.30;62.50;;;;;;5030198;28;1327;-67
2023/06/05 07:45:59;;;;;;;;;;;19.30;62.40;;;;;;5029262;28;870;-67
2023/06/05 07:48:24;;;;;;;;;;;19.30;62.50;;;;;;5030044;28;758;-67
2023/06/05 07:50:50;;;;;;;;;;;19.30;62.60;;;;;;5030536;28;830;-67
2023/06/05 07:53:15;;;;;;;;;;;19.40;62.70;;;;;;5028083;28;1914;-67
2023/06/05 07:55:41;;;;;;;;;;;19.40;62.90;;;;;;5031229;28;1223;-67
2023/06/05 07:58:07;;;;;;;;;;;19.40;63.00;;;;;;5029410;28;862;-67
2023/06/05 08:00:33;;;;;;;;;;;19.40;63.00;;;;;;5028716;28;833;-67
2023/06/05 08:02:59;;;;;;;;;;;19.40;63.10;;;;;;5030682;28;1336;-67
2023/06/05 08:05:25;;;;;;;;;;;19.40;62.80;;;;;;5028991;28;1314;-67
2023/06/05 08:07:51;;;;;;;;;;;19.40;62.80;;;;;;5028405;28;960;-67
2023/06/05 08:10:16;;;;;;;;;;;19.40;62.90;;;;;;5028264;28;860;-67
2023/06/05 08:12:42;;;;;;;;;;;19.40;62.90;;;;;;5027084;28;1914;-67
2023/06/05 08:15:07;;;;;;;;;;;19.40;63.00;;;;;;5027664;28;881;-67
2023/06/05 08:17:33;;;;;;;;;;;19.40;63.00;;;;;;5029443;28;913;-67
2023/06/05 08:19:58;;;;;;;;;;;19.40;63.10;;;;;;5030282;28;896;-67
2023/06/05 08:22:24;;;;;;;;;;;19.30;63.20;;;;;;5029881;28;883;-67
2023/06/05 08:24:50;;;;;;;;;;;19.30;63.20;;;;;;5029731;28;1163;-67
2023/06/05 08:27:18;;;;;;;;;;;19.30;63.30;;;;;;5028954;28;903;-67
2023/06/05 08:29:44;;;;;;;;;;;19.30;63.40;;;;;;5026281;28;1438;-67
2023/06/05 08:32:09;;;;;;;;;;;19.30;63.40;;;;;;5025735;28;1958;-67
2023/06/05 08:34:35;;;;;;;;;;;19.30;63.50;;;;;;5029363;28;1374;-67
2023/06/05 08:37:01;;;;;;;;;;;19.30;63.50;;;;;;5030171;28;801;-67
2023/06/05 08:39:31;;;;;;;;;;;19.30;63.60;;;;;;5030391;28;1312;-67
2023/06/05 08:41:59;;;;;;;;;;;19.30;63.70;;;;;;5025873;28;908;-66
2023/06/05 08:44:26;;;;;;;;;;;19.40;64.20;;;;;;5027832;28;1265;-67
2023/06/05 08:46:51;;;;;;;;;;;19.40;64.40;;;;;;5029857;28;888;-67
2023/06/05 08:49:17;;;;;;;;;;;19.30;64.20;;;;;;5013029;28;1198;-67
2023/06/05 08:51:42;;;;;;;;;;;19.40;64.20;;;;;;5026626;28;1902;-67
2023/06/05 08:54:12;;;;;;;;;;;19.30;64.10;;;;;;5026997;28;2077;-67
2023/06/05 08:56:38;;;;;;;;;;;19.30;64.20;;;;;;5027759;28;1412;-66
2023/06/05 08:59:04;;;;;;;;;;;19.40;64.40;;;;;;5025786;28;1199;-67
2023/06/05 09:01:30;;;;;;;;;;;19.40;64.40;;;;;;5018375;28;862;-66
2023/06/05 09:03:55;;;;;;;;;;;19.40;64.40;;;;;;5018247;28;1405;-67
2023/06/05 09:06:21;;;;;;;;;;;19.40;64.40;;;;;;5030135;28;1026;-66
2023/06/05 09:08:46;;;;;;;;;;;19.40;64.50;;;;;;5024018;28;890;-66
2023/06/05 09:11:22;;;;;;;;;;;19.40;64.50;;;;;;5024069;28;832;-66
2023/06/05 09:13:47;;;;;;;;;;;19.30;64.50;;;;;;5008163;28;1289;-66
2023/06/05 09:16:13;;;;;;;;;;;19.40;64.60;;;;;;5028933;28;935;-65
2023/06/05 09:18:54;;;;;;;;;;;19.40;64.70;;;;;;5029732;28;970;-66
2023/06/05 09:21:19;;;;;;;;;;;19.40;64.70;;;;;;5026431;28;2177;-66
2023/06/05 09:23:45;;;;;;;;;;;19.40;64.70;;;;;;5027391;28;2273;-66
2023/06/05 09:26:12;;;;;;;;;;;19.40;64.70;;;;;;5028611;28;1904;-66
2023/06/05 09:28:50;;;;;;;;;;;19.40;64.80;;;;;;5027215;28;1989;-66
2023/06/05 09:31:16;;;;;;;;;;;19.40;65.20;;;;;;5027936;28;1351;-66
2023/06/05 09:33:42;;;;;;;;;;;19.40;65.20;;;;;;5028253;28;1902;-66
2023/06/05 09:36:09;;;;;;;;;;;19.40;65.20;;;;;;5027733;28;1376;-66
2023/06/05 09:38:34;;;;;;;;;;;19.40;65.20;;;;;;5026073;28;866;-66
2023/06/05 09:41:03;;;;;;;;;;;19.40;65.20;;;;;;5026291;28;1337;-66
2023/06/05 09:43:29;;;;;;;;;;;19.50;65.20;;;;;;5026726;28;1274;-66
2023/06/05 09:45:54;;;;;;;;;;;19.50;65.20;;;;;;5027998;28;871;-66
2023/06/05 09:48:20;;;;;;;;;;;19.50;65.20;;;;;;5027490;28;1451;-66
2023/06/05 09:50:46;;;;;;;;;;;19.50;65.10;;;;;;5029107;28;872;-66
2023/06/05 09:53:12;;;;;;;;;;;19.50;65.00;;;;;;5027086;28;1938;-66
2023/06/05 09:55:38;;;;;;;;;;;19.50;65.10;;;;;;5028175;28;872;-66
2023/06/05 09:58:09;;;;;;;;;;;19.50;65.10;;;;;;5027577;28;916;-66
2023/06/05 10:00:36;;;;;;;;;;;19.50;65.10;;;;;;5027714;28;875;-66
2023/06/05 10:03:02;;;;;;;;;;;19.50;65.00;;;;;;5025240;28;1279;-66
2023/06/05 10:05:27;;;;;;;;;;;19.50;65.10;;;;;;5028689;28;971;-66
2023/06/05 10:07:54;;;;;;;;;;;19.50;65.10;;;;;;5026616;28;1026;-66
2023/06/05 10:10:19;;;;;;;;;;;19.50;65.10;;;;;;5023778;28;914;-66
2023/06/05 10:12:45;;;;;;;;;;;19.50;65.10;;;;;;5023733;28;1919;-67
2023/06/05 10:15:10;;;;;;;;;;;19.60;65.30;;;;;;5027834;28;967;-66
2023/06/05 10:17:38;;;;;;;;;;;19.60;65.40;;;;;;5023356;28;887;-67
2023/06/05 10:20:06;;;;;;;;;;;19.60;65.50;;;;;;5027715;28;860;-66
2023/06/05 10:22:32;;;;;;;;;;;19.50;65.40;;;;;;5028631;28;843;-66
2023/06/05 10:24:58;;;;;;;;;;;19.50;66.30;;;;;;5028789;28;866;-66
2023/06/05 10:27:34;;;;;;;;;;;19.50;65.60;;;;;;5024221;28;1065;-66
2023/06/05 10:30:18;;;;;;;;;;;19.50;65.70;;;;;;5025733;28;1573;-66
2023/06/05 10:33:03;;;;;;;;;;;19.50;65.80;;;;;;5027429;28;1985;-66
2023/06/05 10:35:31;;;;;;;;;;;19.50;66.00;;;;;;5028152;28;1369;-66
2023/06/05 10:38:17;;;;;;;;;;;19.50;66.20;;;;;;5028298;28;1010;-66
2023/06/05 10:40:46;;;;;;;;;;;19.50;66.10;;;;;;5027804;28;1353;-66
2023/06/05 10:43:30;;;;;;;;;;;19.50;66.20;;;;;;5025818;28;1358;-66
2023/06/05 10:45:56;;;;;;;;;;;19.50;66.20;;;;;;5028760;28;835;-66
2023/06/05 10:48:38;;;;;;;;;;;19.50;66.30;;;;;;5028627;28;859;-66
2023/06/05 10:51:23;;;;;;;;;;;19.50;66.30;;;;;;5018625;28;1422;-66
2023/06/05 10:53:48;;;;;;;;;;;19.50;66.40;;;;;;5028290;28;1946;-66
2023/06/05 10:56:32;;;;;;;;;;;19.50;66.60;;;;;;5026608;28;907;-66
2023/06/05 10:59:13;;;;;;;;;;;19.50;66.30;;;;;;5019080;28;1665;-66
2023/06/05 11:01:39;;;;;;;;;;;19.50;66.40;;;;;;5027710;28;991;-66
2023/06/05 11:04:04;;;;;;;;;;;19.50;66.50;;;;;;5027986;28;1267;-66
2023/06/05 11:06:30;;;;;;;;;;;19.60;66.50;;;;;;5030885;28;1262;-66
2023/06/05 11:09:12;;;;;;;;;;;19.50;66.50;;;;;;5029361;28;848;-66
2023/06/05 11:11:57;;;;;;;;;;;19.60;66.60;;;;;;5013199;28;1906;-66
2023/06/05 11:14:23;;;;;;;;;;;19.60;66.90;;;;;;5026240;28;1269;-65
2023/06/05 11:16:48;;;;;;;;;;;19.60;67.10;;;;;;5030062;28;891;-66
2023/06/05 11:19:23;;;;;;;;;;;19.60;67.10;;;;;;5030817;28;998;-65
2023/06/05 11:22:03;;;;;;;;;;;19.60;67.10;;;;;;5031579;28;836;-66
2023/06/05 11:24:29;;;;;;;;;;;19.70;67.30;;;;;;5030604;28;1252;-65
2023/06/05 11:26:54;;;;;;;;;;;19.60;67.20;;;;;;5029683;28;868;-65
2023/06/05 11:29:20;;;;;;;;;;;19.60;66.90;;;;;;5030671;28;939;-65
2023/06/05 11:31:45;;;;;;;;;;;19.70;68.20;;;;;;5025379;28;1902;-65
2023/06/05 11:34:12;;;;;;;;;;;19.70;68.10;;;;;;5030254;28;1377;-66
2023/06/05 11:36:38;;;;;;;;;;;19.70;67.60;;;;;;5031815;28;887;-65
2023/06/05 11:39:03;;;;;;;;;;;19.60;67.40;;;;;;5028093;28;1372;-65
2023/06/05 11:41:29;;;;;;;;;;;19.70;67.50;;;;;;5030244;28;829;-66
2023/06/05 11:43:56;;;;;;;;;;;19.60;67.30;;;;;;5030253;28;1318;-66
2023/06/05 11:46:41;;;;;;;;;;;19.60;67.20;;;;;;5028312;28;889;-65
2023/06/05 11:49:07;;;;;;;;;;;19.70;67.20;;;;;;5030584;28;865;-65
2023/06/05 11:51:36;;;;;;;;;;;19.70;67.40;;;;;;5025384;28;1973;-65
2023/06/05 11:54:02;;;;;;;;;;;19.70;67.30;;;;;;5029008;28;1308;-65
2023/06/05 11:56:28;;;;;;;;;;;19.60;67.30;;;;;;5028542;28;860;-65
2023/06/05 11:58:53;;;;;;;;;;;19.70;67.30;;;;;;5029186;28;863;-65
2023/06/05 12:01:22;;;;;;;;;;;19.70;67.30;;;;;;5028677;28;892;-66
2023/06/05 12:03:48;;;;;;;;;;;19.60;68.50;;;;;;5029961;28;1276;-66
2023/06/05 12:06:13;;;;;;;;;;;19.70;53.30;;;;;;5030788;28;817;-66
2023/06/05 12:08:39;;;;;;;;;;;19.70;50.10;;;;;;5031031;28;812;-66
2023/06/05 12:11:20;;;;;;;;;;;19.80;50.40;;;;;;5029369;28;796;-65
2023/06/05 12:13:50;;;;;;;;;;;19.80;47.60;;;;;;5028565;28;1902;-66
2023/06/05 12:16:16;;;;;;;;;;;19.90;48.40;;;;;;5027058;28;864;-66
2023/06/05 12:18:42;;;;;;;;;;;19.90;44.80;;;;;;5029134;28;916;-66
2023/06/05 12:21:08;;;;;;;;;;;20.00;44.20;;;;;;5021241;28;888;-66
2023/06/05 12:23:33;;;;;;;;;;;20.00;44.00;;;;;;5027952;28;1686;-65
2023/06/05 12:26:03;;;;;;;;;;;20.00;44.70;;;;;;5026587;28;1584;-66
2023/06/05 12:28:28;;;;;;;;;;;20.10;45.70;;;;;;5008902;28;1713;-66
2023/06/05 12:30:54;;;;;;;;;;;20.10;47.20;;;;;;5029643;28;840;-66
2023/06/05 12:33:19;;;;;;;;;;;20.10;48.60;;;;;;5029992;28;1941;-66
2023/06/05 12:35:48;;;;;;;;;;;20.10;48.70;;;;;;5029177;28;1002;-67
2023/06/05 12:38:13;;;;;;;;;;;20.10;49.20;;;;;;5029422;28;868;-66
2023/06/05 12:40:39;;;;;;;;;;;20.00;48.80;;;;;;5030338;28;995;-67
2023/06/05 12:43:14;;;;;;;;;;;20.00;48.50;;;;;;5030987;28;1202;-67
2023/06/05 12:45:40;;;;;;;;;;;20.00;47.40;;;;;;5029023;28;856;-66
2023/06/05 12:48:06;;;;;;;;;;;20.00;48.50;;;;;;5029181;28;932;-66
2023/06/05 12:50:31;;;;;;;;;;;20.00;48.30;;;;;;5027984;28;880;-66
2023/06/05 12:52:57;;;;;;;;;;;19.90;48.80;;;;;;5029418;28;1898;-66
2023/06/05 12:55:22;;;;;;;;;;;19.90;50.10;;;;;;5026717;28;808;-66
2023/06/05 12:57:48;;;;;;;;;;;19.90;51.10;;;;;;5029287;28;930;-66
2023/06/05 13:00:16;;;;;;;;;;;19.90;51.00;;;;;;5025684;28;935;-66
2023/06/05 13:02:44;;;;;;;;;;;19.90;52.00;;;;;;5025831;28;1274;-67
2023/06/05 13:05:10;;;;;;;;;;;19.90;53.30;;;;;;5027973;28;895;-66
2023/06/05 13:07:37;;;;;;;;;;;19.80;53.70;;;;;;5029120;28;931;-66
2023/06/05 13:10:04;;;;;;;;;;;19.80;54.10;;;;;;5027342;28;912;-67
2023/06/05 13:12:30;;;;;;;;;;;19.80;52.20;;;;;;5029582;28;1985;-66
2023/06/05 13:14:56;;;;;;;;;;;19.80;51.40;;;;;;5028333;28;1421;-66
2023/06/05 13:17:25;;;;;;;;;;;19.80;49.50;;;;;;5023954;28;1653;-67
2023/06/05 13:19:52;;;;;;;;;;;19.80;48.50;;;;;;5025845;28;833;-65
2023/06/05 13:22:17;;;;;;;;;;;19.80;47.70;;;;;;5027691;28;867;-67
2023/06/05 13:24:43;;;;;;;;;;;19.80;47.70;;;;;;5029092;28;1292;-69
2023/06/05 13:27:08;;;;;;;;;;;19.80;48.40;;;;;;5028252;28;1968;-69
2023/06/05 13:29:34;;;;;;;;;;;19.80;48.60;;;;;;5028788;28;1105;-68
2023/06/05 13:31:59;;;;;;;;;;;19.80;50.20;;;;;;5027447;28;1891;-68
2023/06/05 13:34:25;;;;;;;;;;;19.80;51.50;;;;;;5028201;28;1434;-69
2023/06/05 13:36:50;;;;;;;;;;;19.80;51.50;;;;;;5027299;28;1903;-66
2023/06/05 13:39:16;;;;;;;;;;;19.80;52.30;;;;;;5027358;28;1337;-66
2023/06/05 13:41:41;;;;;;;;;;;19.80;50.00;;;;;;5027980;28;808;-66
2023/06/05 13:44:07;;;;;;;;;;;19.80;47.50;;;;;;5025329;28;1310;-68
2023/06/05 13:46:32;;;;;;;;;;;19.80;48.00;;;;;;5028235;28;895;-70
2023/06/05 13:49:00;;;;;;;;;;;19.80;48.30;;;;;;5028888;28;749;-68
2023/06/05 13:51:25;;;;;;;;;;;19.80;48.20;;;;;;5027588;28;888;-67
2023/06/05 13:53:51;;;;;;;;;;;19.80;47.70;;;;;;5026386;28;1938;-68
2023/06/05 13:56:16;;;;;;;;;;;19.80;45.80;;;;;;5029367;28;937;-68
2023/06/05 13:58:42;;;;;;;;;;;19.80;45.70;;;;;;5028997;28;864;-70
2023/06/05 14:01:07;;;;;;;;;;;19.90;46.60;;;;;;5028261;28;863;-69
2023/06/05 14:03:33;;;;;;;;;;;19.90;46.70;;;;;;5028403;28;1347;-69
2023/06/05 14:05:58;;;;;;;;;;;19.90;47.20;;;;;;5027237;28;820;-68
2023/06/05 14:08:24;;;;;;;;;;;19.80;47.90;;;;;;5026981;28;820;-68
2023/06/05 14:10:49;;;;;;;;;;;19.90;49.70;;;;;;5028245;28;860;-68
2023/06/05 14:13:15;;;;;;;;;;;19.80;50.20;;;;;;5027246;28;1980;-68
2023/06/05 14:15:40;;;;;;;;;;;19.80;50.50;;;;;;5027398;28;919;-68
2023/06/05 14:18:06;;;;;;;;;;;19.80;50.10;;;;;;5027961;28;1033;-68
2023/06/05 14:20:31;;;;;;;;;;;19.80;50.60;;;;;;5019624;28;854;-68
2023/06/05 14:22:57;;;;;;;;;;;19.70;50.10;;;;;;5028590;28;1348;-68
2023/06/05 14:25:23;;;;;;;;;;;19.70;51.10;;;;;;5028846;28;824;-68
2023/06/05 14:27:49;;;;;;;;;;;19.70;52.60;;;;;;5027675;28;1213;-68
2023/06/05 14:30:14;;;;;;;;;;;19.70;52.20;;;;;;5026273;28;1457;-67
2023/06/05 14:32:41;;;;;;;;;;;19.70;53.00;;;;;;5027538;28;1961;-67